Time;durP1;ratioP1;P1;durP2;ratioP2;P2;SDS_P1;SDS_P2;PMS_P1;PMS_P2;Temp;Humidity;BMP_temperature;BMP_pressure;BME280_temperature;BME280_humidity;BME280_pressure;Samples;Min_cycle;Max_cycle;Signal;HPM_P1;HPM_P2
2023/08/10 00:00:16;;;;;;;3.67;1.52;;;;;;;;;;4961050;29;20490;-76
2023/08/10 00:02:42;;;;;;;6.35;1.60;;;;;;;;;;4926125;29;20047;-76
2023/08/10 00:05:09;;;;;;;4.55;2.03;;;;;;;;;;4931243;29;20111;-76
2023/08/10 00:07:35;;;;;;;3.83;1.83;;;;;;;;;;4953467;29;20035;-77
2023/08/10 00:10:01;;;;;;;4.45;2.17;;;;;;;;;;4924336;29;20734;-75
2023/08/10 00:12:27;;;;;;;4.45;1.80;;;;;;;;;;4924006;29;20035;-76
2023/08/10 00:14:53;;;;;;;5.63;1.45;;;;;;;;;;4953283;29;20039;-78
2023/08/10 00:17:18;;;;;;;3.08;1.40;;;;;;;;;;4944323;29;20039;-76
2023/08/10 00:19:44;;;;;;;6.00;1.52;;;;;;;;;;4947289;29;20039;-76
2023/08/10 00:22:10;;;;;;;4.03;1.42;;;;;;;;;;4963367;29;20034;-77
2023/08/10 00:24:36;;;;;;;5.10;1.45;;;;;;;;;;4962033;29;20031;-78
2023/08/10 00:27:04;;;;;;;4.18;1.83;;;;;;;;;;4947003;29;20027;-75
2023/08/10 00:29:30;;;;;;;4.90;1.60;;;;;;;;;;4931596;29;20031;-75
2023/08/10 00:31:55;;;;;;;8.60;1.42;;;;;;;;;;4924912;29;20083;-76
2023/08/10 00:34:21;;;;;;;6.32;1.80;;;;;;;;;;4947229;29;20075;-76
2023/08/10 00:36:46;;;;;;;4.20;1.30;;;;;;;;;;4963216;29;20514;-75
2023/08/10 00:39:12;;;;;;;7.07;1.75;;;;;;;;;;4945846;29;20558;-77
2023/08/10 00:41:38;;;;;;;3.85;1.80;;;;;;;;;;4964045;29;20485;-75
2023/08/10 00:44:04;;;;;;;5.60;1.60;;;;;;;;;;4947248;29;20035;-76
2023/08/10 00:46:30;;;;;;;4.90;1.23;;;;;;;;;;4947461;29;20178;-76
2023/08/10 00:48:55;;;;;;;4.20;1.55;;;;;;;;;;4963976;29;20124;-76
2023/08/10 00:51:21;;;;;;;7.40;1.50;;;;;;;;;;4911691;29;20073;-76
2023/08/10 00:53:47;;;;;;;3.28;1.20;;;;;;;;;;4915522;29;20031;-75
2023/08/10 00:56:14;;;;;;;5.97;1.42;;;;;;;;;;4930973;29;20039;-75
2023/08/10 00:58:40;;;;;;;3.22;1.35;;;;;;;;;;4931280;29;20126;-76
2023/08/10 01:01:06;;;;;;;4.65;1.42;;;;;;;;;;4946953;29;20023;-76
2023/08/10 01:03:31;;;;;;;5.95;1.00;;;;;;;;;;4947004;29;20031;-76
2023/08/10 01:06:02;;;;;;;5.75;1.42;;;;;;;;;;4946025;29;20109;-76
2023/08/10 01:08:35;;;;;;;6.32;1.52;;;;;;;;;;4929912;29;20047;-75
2023/08/10 01:11:15;;;;;;;2.50;1.38;;;;;;;;;;4946813;29;20479;-76
2023/08/10 01:13:47;;;;;;;3.95;1.27;;;;;;;;;;4933516;29;20066;-76
2023/08/10 01:16:14;;;;;;;3.28;1.30;;;;;;;;;;4949397;29;20097;-76
2023/08/10 01:18:41;;;;;;;4.63;1.40;;;;;;;;;;4934977;29;20031;-77
2023/08/10 01:21:21;;;;;;;3.58;1.30;;;;;;;;;;4949755;29;20027;-76
2023/08/10 01:23:48;;;;;;;7.90;1.40;;;;;;;;;;4950830;29;20058;-77
2023/08/10 01:26:14;;;;;;;3.53;1.27;;;;;;;;;;4951142;29;20046;-77
2023/08/10 01:28:40;;;;;;;5.30;1.92;;;;;;;;;;4950363;29;20027;-78
2023/08/10 01:31:07;;;;;;;3.78;1.30;;;;;;;;;;4932803;29;20122;-76
2023/08/10 01:33:33;;;;;;;2.95;0.98;;;;;;;;;;4932452;29;20035;-76
2023/08/10 01:35:58;;;;;;;3.92;1.20;;;;;;;;;;4935225;29;20070;-76
2023/08/10 01:38:24;;;;;;;3.75;1.30;;;;;;;;;;4969687;29;20039;-76
2023/08/10 01:40:51;;;;;;;3.35;1.42;;;;;;;;;;4950986;29;20043;-75
2023/08/10 01:43:17;;;;;;;3.92;1.17;;;;;;;;;;4949928;29;20047;-76
2023/08/10 01:45:45;;;;;;;4.10;1.40;;;;;;;;;;4949021;29;20071;-77
2023/08/10 01:48:22;;;;;;;2.58;1.30;;;;;;;;;;4934360;29;20101;-76
2023/08/10 01:50:49;;;;;;;3.42;1.17;;;;;;;;;;4949311;29;20034;-76
2023/08/10 01:53:21;;;;;;;6.70;1.73;;;;;;;;;;4948089;29;20490;-77
2023/08/10 01:55:47;;;;;;;3.78;1.20;;;;;;;;;;4947793;29;20035;-76
2023/08/10 01:58:13;;;;;;;7.63;1.30;;;;;;;;;;4945059;29;20122;-76
2023/08/10 02:00:39;;;;;;;5.30;1.10;;;;;;;;;;4943916;29;20031;-75
2023/08/10 02:03:05;;;;;;;4.45;1.33;;;;;;;;;;4925991;29;20042;-75
2023/08/10 02:05:31;;;;;;;3.10;1.20;;;;;;;;;;4940784;29;20058;-76
2023/08/10 02:07:56;;;;;;;7.45;1.40;;;;;;;;;;4923871;29;20058;-75
2023/08/10 02:10:22;;;;;;;6.72;1.40;;;;;;;;;;4956521;29;20031;-75
2023/08/10 02:12:48;;;;;;;3.05;1.35;;;;;;;;;;4941502;29;20036;-75
2023/08/10 02:15:13;;;;;;;2.55;1.20;;;;;;;;;;4940435;28;20069;-77
2023/08/10 02:17:40;;;;;;;4.03;1.50;;;;;;;;;;4939764;29;20031;-75
2023/08/10 02:20:12;;;;;;;3.80;1.50;;;;;;;;;;4926043;29;20053;-76
2023/08/10 02:22:58;;;;;;;4.00;1.42;;;;;;;;;;4944286;29;20050;-76
2023/08/10 02:25:23;;;;;;;3.75;1.38;;;;;;;;;;4941407;29;20103;-77
2023/08/10 02:27:52;;;;;;;3.85;1.45;;;;;;;;;;4924950;29;20114;-75
2023/08/10 02:30:18;;;;;;;6.15;1.50;;;;;;;;;;4957927;29;20068;-75
2023/08/10 02:32:44;;;;;;;4.03;1.40;;;;;;;;;;4942424;29;20031;-76
2023/08/10 02:35:09;;;;;;;5.40;1.20;;;;;;;;;;4911621;28;20039;-75
2023/08/10 02:37:35;;;;;;;4.05;1.23;;;;;;;;;;4927093;29;20070;-76
2023/08/10 02:40:04;;;;;;;5.05;1.60;;;;;;;;;;4942357;29;20062;-76
2023/08/10 02:42:30;;;;;;;;;;;;;;;;;;4938562;29;20042;-75
2023/08/10 02:44:56;;;;;;;5.15;1.25;;;;;;;;;;4961275;29;19914;-75
2023/08/10 02:47:22;;;;;;;4.40;1.63;;;;;;;;;;4928872;29;20039;-77
2023/08/10 02:49:47;;;;;;;5.28;1.50;;;;;;;;;;4945614;29;20042;-75
2023/08/10 02:52:14;;;;;;;4.95;1.55;;;;;;;;;;4928360;29;20051;-77
2023/08/10 02:54:40;;;;;;;4.63;1.23;;;;;;;;;;4945960;29;20031;-76
2023/08/10 02:59:45;;;;;;;3.22;1.58;;;;;;;;;;4947179;29;20055;-78
2023/08/10 03:02:28;;;;;;;2.30;1.05;;;;;;;;;;4931700;29;20039;-81
2023/08/10 03:05:00;;;;;;;3.65;1.63;;;;;;;;;;4914869;29;20035;-81
2023/08/10 03:07:30;;;;;;;4.50;1.35;;;;;;;;;;4932111;29;20102;-81
2023/08/10 03:09:59;;;;;;;2.65;1.45;;;;;;;;;;4936395;29;20057;-81
2023/08/10 03:12:32;;;;;;;8.90;3.13;;;;;;;;;;4933151;29;20055;-79
2023/08/10 03:15:11;;;;;;;4.80;1.70;;;;;;;;;;4936547;29;20039;-81
2023/08/10 03:17:41;;;;;;;5.28;1.33;;;;;;;;;;4954605;29;20107;-79
2023/08/10 03:20:12;;;;;;;4.88;1.52;;;;;;;;;;4953475;29;20040;-79
2023/08/10 03:22:39;;;;;;;5.78;1.35;;;;;;;;;;4922888;29;20047;-81
2023/08/10 03:25:12;;;;;;;4.70;1.70;;;;;;;;;;4953618;29;20511;-81
2023/08/10 03:27:38;;;;;;;9.70;1.80;;;;;;;;;;4951374;29;20050;-80
2023/08/10 03:30:14;;;;;;;6.78;1.95;;;;;;;;;;4951533;29;20076;-81
2023/08/10 03:32:44;;;;;;;4.32;1.70;;;;;;;;;;4935389;29;20032;-82
2023/08/10 03:35:31;;;;;;;5.15;2.15;;;;;;;;;;4924363;29;20194;-83
2023/08/10 03:38:00;;;;;;;11.13;1.60;;;;;;;;;;4953093;29;20091;-79
2023/08/10 03:40:26;;;;;;;;;;;;;;;;;;4956309;29;20107;-78
2023/08/10 03:42:53;;;;;;;7.47;1.98;;;;;;;;;;4942303;29;19919;-78
2023/08/10 03:45:32;;;;;;;3.95;1.50;;;;;;;;;;4928367;29;20028;-78
2023/08/10 03:48:03;;;;;;;6.18;1.88;;;;;;;;;;4940285;29;20035;-77
2023/08/10 03:50:33;;;;;;;4.03;1.33;;;;;;;;;;4971557;29;20027;-78
2023/08/10 03:52:59;;;;;;;3.53;1.38;;;;;;;;;;4939219;29;20036;-79
2023/08/10 03:55:31;;;;;;;4.63;1.38;;;;;;;;;;4925785;29;20032;-80
2023/08/10 03:57:58;;;;;;;12.00;1.40;;;;;;;;;;4940423;29;20032;-80
2023/08/10 04:00:27;;;;;;;5.43;1.83;;;;;;;;;;4955249;29;20040;-80
2023/08/10 04:02:54;;;;;;;6.45;1.85;;;;;;;;;;4955842;29;20067;-80
2023/08/10 04:05:26;;;;;;;4.70;1.60;;;;;;;;;;4972951;29;20057;-78
2023/08/10 04:08:03;;;;;;;;;;;;;;;;;;4955212;29;20028;-80
2023/08/10 04:10:30;;;;;;;5.47;1.75;;;;;;;;;;4957744;29;19910;-80
2023/08/10 04:13:03;;;;;;;4.78;1.60;;;;;;;;;;4938366;29;20028;-79
2023/08/10 04:15:33;;;;;;;4.00;1.50;;;;;;;;;;4920093;29;20059;-79
2023/08/10 04:18:06;;;;;;;4.82;1.90;;;;;;;;;;4944345;29;20043;-80
2023/08/10 04:20:37;;;;;;;11.10;1.85;;;;;;;;;;4941497;29;20028;-81
2023/08/10 04:23:07;;;;;;;6.32;1.90;;;;;;;;;;4933064;29;20059;-80
2023/08/10 04:25:33;;;;;;;5.45;1.85;;;;;;;;;;4934122;29;20099;-83
2023/08/10 04:28:02;;;;;;;4.78;1.70;;;;;;;;;;4935590;29;20083;-82
2023/08/10 04:30:31;;;;;;;4.93;1.73;;;;;;;;;;4935790;29;20031;-83
2023/08/10 04:33:01;;;;;;;4.13;1.38;;;;;;;;;;4937548;29;20039;-80
2023/08/10 04:35:32;;;;;;;5.85;1.70;;;;;;;;;;4957367;29;20051;-79
2023/08/10 04:38:01;;;;;;;5.95;1.95;;;;;;;;;;4956961;29;20037;-79
2023/08/10 04:40:29;;;;;;;7.20;1.70;;;;;;;;;;4957555;29;20023;-79
2023/08/10 04:42:55;;;;;;;4.55;1.98;;;;;;;;;;4956557;29;20037;-79
2023/08/10 04:45:21;;;;;;;4.72;1.73;;;;;;;;;;4957602;29;20043;-78
2023/08/10 04:47:55;;;;;;;5.20;1.83;;;;;;;;;;4940119;29;20035;-80
2023/08/10 04:50:21;;;;;;;3.53;1.60;;;;;;;;;;4957956;29;20031;-80
2023/08/10 04:52:47;;;;;;;6.05;1.80;;;;;;;;;;4941363;29;20043;-78
2023/08/10 04:55:17;;;;;;;5.00;1.48;;;;;;;;;;4939726;29;20039;-82
2023/08/10 04:57:48;;;;;;;5.20;1.92;;;;;;;;;;4956288;29;20027;-83
2023/08/10 05:00:26;;;;;;;8.35;1.67;;;;;;;;;;4955928;29;20046;-82
2023/08/10 05:02:53;;;;;;;10.07;2.20;;;;;;;;;;4939446;29;20038;-80
2023/08/10 05:05:25;;;;;;;9.23;2.60;;;;;;;;;;4939507;29;20055;-78
2023/08/10 05:07:51;;;;;;;5.55;1.85;;;;;;;;;;4938626;29;20087;-77
2023/08/10 05:10:17;;;;;;;4.43;1.90;;;;;;;;;;4923640;29;20028;-78
2023/08/10 05:12:42;;;;;;;5.00;1.65;;;;;;;;;;4929188;29;20039;-77
2023/08/10 05:15:09;;;;;;;3.88;1.50;;;;;;;;;;4902998;29;20042;-77
2023/08/10 05:17:36;;;;;;;11.50;2.33;;;;;;;;;;4929158;29;20174;-77
2023/08/10 05:20:09;;;;;;;5.07;1.70;;;;;;;;;;4923953;29;20042;-77
2023/08/10 05:22:34;;;;;;;4.15;1.55;;;;;;;;;;4905532;29;20044;-77
2023/08/10 05:25:00;;;;;;;6.57;1.80;;;;;;;;;;4931874;29;20027;-77
2023/08/10 05:27:25;;;;;;;4.80;1.80;;;;;;;;;;4919033;29;20031;-77
2023/08/10 05:29:51;;;;;;;5.93;2.00;;;;;;;;;;4934348;29;20479;-77
2023/08/10 05:32:17;;;;;;;5.13;2.00;;;;;;;;;;4918020;29;20065;-78
2023/08/10 05:34:42;;;;;;;4.75;1.80;;;;;;;;;;4934113;29;20031;-77
2023/08/10 05:37:08;;;;;;;3.47;1.42;;;;;;;;;;4934796;29;20471;-78
2023/08/10 05:39:33;;;;;;;4.40;1.42;;;;;;;;;;4933643;29;20130;-78
2023/08/10 05:41:59;;;;;;;4.05;1.50;;;;;;;;;;4933714;29;20047;-77
2023/08/10 05:44:25;;;;;;;7.03;1.70;;;;;;;;;;4917750;29;20668;-76
2023/08/10 05:46:51;;;;;;;7.90;1.75;;;;;;;;;;4917641;29;20479;-76
2023/08/10 05:49:17;;;;;;;4.82;1.83;;;;;;;;;;4933073;29;20074;-76
2023/08/10 05:51:42;;;;;;;4.28;1.80;;;;;;;;;;4917884;29;20036;-76
2023/08/10 05:54:08;;;;;;;3.42;1.60;;;;;;;;;;4933394;29;20055;-77
2023/08/10 05:56:33;;;;;;;8.95;1.92;;;;;;;;;;4934804;29;20078;-76
2023/08/10 05:59:01;;;;;;;5.20;2.17;;;;;;;;;;4933184;29;20167;-77
2023/08/10 06:01:26;;;;;;;3.20;1.77;;;;;;;;;;4934807;29;20032;-77
2023/08/10 06:03:53;;;;;;;3.45;1.50;;;;;;;;;;4934700;29;20023;-77
2023/08/10 06:06:18;;;;;;;10.57;3.38;;;;;;;;;;4934738;29;20067;-77
2023/08/10 06:08:44;;;;;;;5.53;1.83;;;;;;;;;;4934626;29;20340;-77
2023/08/10 06:11:11;;;;;;;6.35;1.70;;;;;;;;;;4948134;29;20547;-77
2023/08/10 06:13:38;;;;;;;4.60;1.85;;;;;;;;;;4928174;29;20047;-78
2023/08/10 06:16:04;;;;;;;7.05;2.00;;;;;;;;;;4925282;29;20047;-76
2023/08/10 06:18:30;;;;;;;4.25;1.60;;;;;;;;;;4923065;29;20028;-78
2023/08/10 06:20:55;;;;;;;5.10;1.90;;;;;;;;;;4930191;29;20024;-76
2023/08/10 06:23:22;;;;;;;8.48;1.90;;;;;;;;;;4919006;29;20448;-76
2023/08/10 06:25:48;;;;;;;6.68;1.92;;;;;;;;;;4917759;29;20035;-77
2023/08/10 06:28:13;;;;;;;5.78;1.85;;;;;;;;;;4934454;29;20030;-77
2023/08/10 06:30:40;;;;;;;8.82;2.10;;;;;;;;;;4934292;29;20050;-77
2023/08/10 06:33:07;;;;;;;6.10;1.90;;;;;;;;;;4932647;29;20048;-77
2023/08/10 06:35:35;;;;;;;5.13;1.83;;;;;;;;;;4933205;29;20039;-76
2023/08/10 06:38:04;;;;;;;7.50;1.88;;;;;;;;;;4932970;29;20028;-76
2023/08/10 06:40:31;;;;;;;8.55;1.90;;;;;;;;;;4933379;29;20524;-77
2023/08/10 06:42:57;;;;;;;6.90;1.85;;;;;;;;;;4932790;29;20035;-77
2023/08/10 06:45:33;;;;;;;9.65;1.95;;;;;;;;;;4933936;29;20163;-77
2023/08/10 06:47:59;;;;;;;4.32;1.60;;;;;;;;;;4930284;29;20488;-76
2023/08/10 06:50:25;;;;;;;5.70;2.15;;;;;;;;;;4930493;29;20024;-77
2023/08/10 06:52:51;;;;;;;6.72;2.20;;;;;;;;;;4936324;29;20032;-78
2023/08/10 06:55:17;;;;;;;8.15;2.30;;;;;;;;;;4936274;29;20024;-77
2023/08/10 06:57:44;;;;;;;10.82;2.60;;;;;;;;;;4937496;29;20082;-76
2023/08/10 07:00:13;;;;;;;9.20;3.30;;;;;;;;;;4937607;29;20510;-77
2023/08/10 07:02:39;;;;;;;;;;;;;;;;;;4921112;29;20039;-78
2023/08/10 07:05:04;;;;;;;10.93;2.28;;;;;;;;;;4949973;29;20090;-76
2023/08/10 07:07:30;;;;;;;7.65;2.20;;;;;;;;;;4947859;29;20024;-76
2023/08/10 07:09:55;;;;;;;6.32;2.40;;;;;;;;;;4925191;29;20027;-77
2023/08/10 07:12:21;;;;;;;9.80;2.80;;;;;;;;;;4935965;29;20028;-75
2023/08/10 07:14:47;;;;;;;9.02;2.10;;;;;;;;;;4938031;29;20363;-75
2023/08/10 07:17:12;;;;;;;7.10;2.20;;;;;;;;;;4935266;29;20049;-76
2023/08/10 07:19:38;;;;;;;4.22;1.92;;;;;;;;;;4935804;29;20119;-77
2023/08/10 07:22:03;;;;;;;5.45;2.10;;;;;;;;;;4936250;29;20035;-78
2023/08/10 07:24:29;;;;;;;6.53;1.80;;;;;;;;;;4935974;29;20044;-77
2023/08/10 07:26:56;;;;;;;8.70;2.45;;;;;;;;;;4937117;29;20111;-78
2023/08/10 07:29:23;;;;;;;6.28;2.33;;;;;;;;;;4933812;29;20063;-77
2023/08/10 07:31:49;;;;;;;9.13;2.22;;;;;;;;;;4932804;29;20027;-77
2023/08/10 07:34:17;;;;;;;4.63;1.80;;;;;;;;;;4927479;29;20039;-77
2023/08/10 07:36:43;;;;;;;9.18;1.90;;;;;;;;;;4920347;29;20202;-77
2023/08/10 07:39:09;;;;;;;4.85;1.65;;;;;;;;;;4935876;29;20426;-77
2023/08/10 07:41:34;;;;;;;4.43;2.05;;;;;;;;;;4936027;29;20028;-78
2023/08/10 07:44:00;;;;;;;5.95;2.17;;;;;;;;;;4936998;29;20032;-77
2023/08/10 07:46:27;;;;;;;6.88;2.20;;;;;;;;;;4932815;29;20035;-77
2023/08/10 07:48:52;;;;;;;6.95;2.45;;;;;;;;;;4932016;29;20097;-77
2023/08/10 07:51:18;;;;;;;5.65;2.25;;;;;;;;;;4936739;29;20111;-77
2023/08/10 07:53:44;;;;;;;3.92;1.85;;;;;;;;;;4932086;29;20032;-76
2023/08/10 07:56:11;;;;;;;4.50;2.38;;;;;;;;;;4926042;29;20031;-77
2023/08/10 07:58:36;;;;;;;3.65;2.15;;;;;;;;;;4923829;29;20111;-77
2023/08/10 08:01:02;;;;;;;7.28;2.17;;;;;;;;;;4931312;29;20176;-77
2023/08/10 08:03:28;;;;;;;3.92;1.80;;;;;;;;;;4921709;29;20031;-77
2023/08/10 08:05:53;;;;;;;6.43;1.65;;;;;;;;;;4928970;29;20036;-77
2023/08/10 08:08:19;;;;;;;7.10;2.10;;;;;;;;;;4927436;29;20035;-77
2023/08/10 08:10:44;;;;;;;5.43;2.22;;;;;;;;;;4935242;29;20042;-77
2023/08/10 08:13:10;;;;;;;4.15;1.88;;;;;;;;;;4936036;29;20082;-78
2023/08/10 08:15:36;;;;;;;4.93;2.15;;;;;;;;;;4936369;29;20027;-78
2023/08/10 08:18:20;;;;;;;6.50;2.00;;;;;;;;;;4935004;29;20024;-77
2023/08/10 08:20:45;;;;;;;6.85;2.58;;;;;;;;;;4919318;29;20047;-78
2023/08/10 08:23:11;;;;;;;6.43;2.10;;;;;;;;;;4950815;29;20479;-77
2023/08/10 08:25:37;;;;;;;6.25;1.98;;;;;;;;;;4936108;29;20039;-77
2023/08/10 08:28:02;;;;;;;3.45;1.70;;;;;;;;;;4919125;29;20137;-77
2023/08/10 08:30:29;;;;;;;6.90;2.30;;;;;;;;;;4934863;29;20032;-77
2023/08/10 08:32:54;;;;;;;4.03;1.48;;;;;;;;;;4935635;29;20402;-77
2023/08/10 08:35:20;;;;;;;4.95;1.80;;;;;;;;;;4935074;29;20032;-77
2023/08/10 08:37:46;;;;;;;10.82;2.40;;;;;;;;;;4936208;29;20475;-78
2023/08/10 08:40:11;;;;;;;5.57;2.30;;;;;;;;;;4934751;29;20031;-78
2023/08/10 08:42:39;;;;;;;5.22;2.15;;;;;;;;;;4947175;29;20371;-78
2023/08/10 08:45:05;;;;;;;4.15;2.05;;;;;;;;;;4931141;29;20161;-77
2023/08/10 08:47:31;;;;;;;4.60;2.03;;;;;;;;;;4928015;29;20521;-78
2023/08/10 08:49:57;;;;;;;5.22;1.95;;;;;;;;;;4936825;29;20164;-77
2023/08/10 08:52:23;;;;;;;6.50;2.20;;;;;;;;;;4938066;29;20126;-77
2023/08/10 08:54:49;;;;;;;4.85;2.08;;;;;;;;;;4952717;29;20606;-78
2023/08/10 08:57:14;;;;;;;6.32;2.10;;;;;;;;;;4939213;29;20533;-76
2023/08/10 08:59:41;;;;;;;6.65;2.00;;;;;;;;;;4945168;23;20106;-76
2023/08/10 09:02:08;;;;;;;5.80;2.30;;;;;;;;;;4905453;29;20509;-77
2023/08/10 09:04:34;;;;;;;6.80;2.75;;;;;;;;;;4929494;29;20032;-77
2023/08/10 09:06:59;;;;;;;7.88;2.42;;;;;;;;;;4935989;29;20028;-77
2023/08/10 09:09:25;;;;;;;9.45;2.60;;;;;;;;;;4900008;29;20028;-76
2023/08/10 09:11:50;;;;;;;7.03;2.45;;;;;;;;;;4899618;29;20119;-76
2023/08/10 09:14:16;;;;;;;5.57;2.50;;;;;;;;;;4899338;29;20068;-77
2023/08/10 09:16:45;;;;;;;5.13;2.53;;;;;;;;;;4916743;29;20483;-77
2023/08/10 09:19:12;;;;;;;8.15;2.38;;;;;;;;;;4899709;29;20040;-77
2023/08/10 09:21:38;;;;;;;3.60;1.75;;;;;;;;;;4916634;29;20024;-77
2023/08/10 09:24:08;;;;;;;5.53;1.80;;;;;;;;;;4916355;29;20028;-76
2023/08/10 09:26:33;;;;;;;4.75;2.20;;;;;;;;;;4916581;29;20079;-77
2023/08/10 09:28:59;;;;;;;7.20;3.00;;;;;;;;;;4899471;29;20115;-77
2023/08/10 09:31:26;;;;;;;5.45;2.83;;;;;;;;;;4898402;29;20483;-77
2023/08/10 09:33:52;;;;;;;4.90;2.38;;;;;;;;;;4899129;29;20028;-77
2023/08/10 09:36:21;;;;;;;5.32;2.28;;;;;;;;;;4899485;29;20479;-77
2023/08/10 09:38:52;;;;;;;4.95;2.20;;;;;;;;;;4916400;29;20468;-77
2023/08/10 09:41:21;;;;;;;10.27;2.60;;;;;;;;;;4899120;29;20036;-78
2023/08/10 09:43:47;;;;;;;5.28;2.33;;;;;;;;;;4916208;29;20024;-77
2023/08/10 09:46:14;;;;;;;8.73;3.00;;;;;;;;;;4915938;29;20032;-76
2023/08/10 09:48:41;;;;;;;6.63;2.55;;;;;;;;;;4899274;29;20135;-77
2023/08/10 09:51:08;;;;;;;7.03;2.13;;;;;;;;;;4884004;29;20032;-77
2023/08/10 09:53:34;;;;;;;8.00;2.20;;;;;;;;;;4916004;29;20024;-77
2023/08/10 09:56:00;;;;;;;5.85;2.63;;;;;;;;;;4899542;29;20040;-77
2023/08/10 09:58:26;;;;;;;6.60;2.10;;;;;;;;;;4899198;29;20039;-77
2023/08/10 10:00:52;;;;;;;8.63;2.05;;;;;;;;;;4898770;29;20028;-77
2023/08/10 10:03:19;;;;;;;8.65;2.00;;;;;;;;;;4883586;29;20543;-77
2023/08/10 10:05:45;;;;;;;5.15;1.98;;;;;;;;;;4883400;29;20518;-77
2023/08/10 10:08:11;;;;;;;6.32;1.98;;;;;;;;;;4898847;29;20495;-77
2023/08/10 10:10:37;;;;;;;5.90;2.38;;;;;;;;;;4915839;29;20036;-77
2023/08/10 10:13:07;;;;;;;4.93;2.47;;;;;;;;;;4898770;29;20472;-77
2023/08/10 10:15:33;;;;;;;8.00;2.10;;;;;;;;;;4883539;29;20036;-77
2023/08/10 10:17:59;;;;;;;7.05;2.40;;;;;;;;;;4916384;29;20059;-76
2023/08/10 10:20:25;;;;;;;6.07;2.30;;;;;;;;;;4918313;29;20453;-79
2023/08/10 10:22:50;;;;;;;5.20;2.50;;;;;;;;;;4937119;29;20081;-77
2023/08/10 10:25:18;;;;;;;3.85;1.80;;;;;;;;;;4936933;29;20063;-76
2023/08/10 10:27:48;;;;;;;5.30;1.90;;;;;;;;;;4938330;29;20024;-78
2023/08/10 10:30:16;;;;;;;8.82;2.40;;;;;;;;;;4936332;29;20092;-77
2023/08/10 10:32:43;;;;;;;4.47;2.28;;;;;;;;;;4917401;29;20029;-78
2023/08/10 10:35:08;;;;;;;7.00;2.20;;;;;;;;;;4930491;29;20067;-76
2023/08/10 10:37:34;;;;;;;4.35;1.80;;;;;;;;;;4917886;29;20089;-78
2023/08/10 10:40:14;;;;;;;4.97;2.10;;;;;;;;;;4916686;29;20056;-77
2023/08/10 10:43:03;;;;;;;9.07;2.47;;;;;;;;;;4916467;29;20483;-78
2023/08/10 10:45:29;;;;;;;9.98;2.40;;;;;;;;;;4892505;29;20048;-77
2023/08/10 10:47:55;;;;;;;4.65;2.20;;;;;;;;;;4916334;29;20115;-77
2023/08/10 10:50:24;;;;;;;3.97;2.00;;;;;;;;;;4916231;29;20072;-78
2023/08/10 10:52:54;;;;;;;5.78;2.00;;;;;;;;;;4882697;29;20451;-77
2023/08/10 10:55:19;;;;;;;5.40;1.90;;;;;;;;;;4867756;29;20032;-76
2023/08/10 10:57:46;;;;;;;5.22;2.00;;;;;;;;;;4898246;29;20031;-77
2023/08/10 11:00:12;;;;;;;5.50;2.00;;;;;;;;;;4915582;29;20043;-77
2023/08/10 11:02:39;;;;;;;3.97;1.77;;;;;;;;;;4898482;29;20040;-77
2023/08/10 11:05:14;;;;;;;5.68;2.00;;;;;;;;;;4916571;29;20168;-79
2023/08/10 11:07:41;;;;;;;4.47;1.80;;;;;;;;;;4918870;29;20475;-76
2023/08/10 11:10:07;;;;;;;6.18;1.95;;;;;;;;;;4921853;29;20024;-77
2023/08/10 11:12:32;;;;;;;6.82;1.65;;;;;;;;;;4902841;29;20402;-77
2023/08/10 11:14:58;;;;;;;4.32;1.95;;;;;;;;;;4904010;29;20043;-77
2023/08/10 11:17:29;;;;;;;3.95;1.70;;;;;;;;;;4923244;29;20020;-78
2023/08/10 11:19:55;;;;;;;6.28;2.10;;;;;;;;;;4923933;29;20074;-77
2023/08/10 11:22:20;;;;;;;5.07;1.90;;;;;;;;;;4918835;29;20399;-78
2023/08/10 11:24:46;;;;;;;5.63;2.03;;;;;;;;;;4915257;29;20468;-78
2023/08/10 11:27:12;;;;;;;4.05;1.73;;;;;;;;;;4915475;29;20032;-75
2023/08/10 11:29:38;;;;;;;5.88;2.38;;;;;;;;;;4897944;29;20035;-78
2023/08/10 11:32:03;;;;;;;5.55;2.08;;;;;;;;;;4915181;29;20399;-77
2023/08/10 11:34:29;;;;;;;9.93;2.33;;;;;;;;;;4916230;29;20050;-77
2023/08/10 11:36:54;;;;;;;4.10;1.52;;;;;;;;;;4918656;29;20119;-76
2023/08/10 11:39:21;;;;;;;6.55;1.90;;;;;;;;;;4901621;29;20082;-76
2023/08/10 11:41:46;;;;;;;6.10;1.75;;;;;;;;;;4918490;29;20024;-77
2023/08/10 11:44:42;;;;;;;5.28;1.80;;;;;;;;;;4886061;29;20341;-78
2023/08/10 11:47:07;;;;;;;6.65;1.60;;;;;;;;;;4913861;29;20037;-78
2023/08/10 11:49:33;;;;;;;5.35;1.60;;;;;;;;;;4918120;29;20020;-78
2023/08/10 11:52:00;;;;;;;10.05;2.10;;;;;;;;;;4918353;29;20171;-77
2023/08/10 11:54:29;;;;;;;5.65;2.47;;;;;;;;;;4902685;29;20036;-75
2023/08/10 11:56:55;;;;;;;4.85;1.75;;;;;;;;;;4918487;29;20047;-79
2023/08/10 11:59:21;;;;;;;2.90;1.25;;;;;;;;;;4917702;29;20039;-77
2023/08/10 12:01:54;;;;;;;2.72;1.60;;;;;;;;;;4918414;29;20518;-78
2023/08/10 12:04:20;;;;;;;7.28;1.73;;;;;;;;;;4885521;29;20381;-78
2023/08/10 12:06:46;;;;;;;3.13;1.63;;;;;;;;;;4901462;29;20032;-76
2023/08/10 12:09:11;;;;;;;6.72;1.63;;;;;;;;;;4900835;29;20454;-77
2023/08/10 12:11:37;;;;;;;4.90;1.30;;;;;;;;;;4918000;29;20030;-77
2023/08/10 12:14:03;;;;;;;4.55;1.77;;;;;;;;;;4900757;29;20090;-77
2023/08/10 12:16:29;;;;;;;4.15;1.45;;;;;;;;;;4918230;29;20028;-77
2023/08/10 12:18:56;;;;;;;8.25;1.77;;;;;;;;;;4918078;29;20419;-75
2023/08/10 12:21:21;;;;;;;3.67;1.38;;;;;;;;;;4900899;29;20078;-77
2023/08/10 12:23:47;;;;;;;4.80;1.75;;;;;;;;;;4901059;29;20115;-75
2023/08/10 12:26:13;;;;;;;5.50;1.58;;;;;;;;;;4917629;29;20035;-78
2023/08/10 12:28:38;;;;;;;7.90;1.60;;;;;;;;;;4870095;29;20032;-77
2023/08/10 12:31:08;;;;;;;6.53;1.77;;;;;;;;;;4884808;29;20052;-76
2023/08/10 12:33:34;;;;;;;8.57;2.08;;;;;;;;;;4884898;29;20032;-76
2023/08/10 12:36:00;;;;;;;4.03;1.80;;;;;;;;;;4900885;29;20032;-76
2023/08/10 12:38:25;;;;;;;3.38;1.67;;;;;;;;;;4917505;29;20043;-76
2023/08/10 12:40:51;;;;;;;4.70;1.60;;;;;;;;;;4917372;29;20474;-75
2023/08/10 12:43:16;;;;;;;5.97;1.70;;;;;;;;;;4917453;29;20152;-78
2023/08/10 12:45:42;;;;;;;5.55;2.10;;;;;;;;;;4899820;29;20032;-76
2023/08/10 12:48:08;;;;;;;5.80;1.50;;;;;;;;;;4917363;29;20039;-77
2023/08/10 12:50:33;;;;;;;3.95;1.50;;;;;;;;;;4918702;29;20024;-78
2023/08/10 12:52:59;;;;;;;2.92;1.30;;;;;;;;;;4918016;29;20448;-76
2023/08/10 12:55:24;;;;;;;6.07;1.77;;;;;;;;;;4902759;29;20056;-77
2023/08/10 12:57:50;;;;;;;8.90;2.38;;;;;;;;;;4923494;29;20036;-77
2023/08/10 13:00:17;;;;;;;5.20;1.50;;;;;;;;;;4916806;29;20039;-76
2023/08/10 13:02:43;;;;;;;5.60;1.65;;;;;;;;;;4938416;29;20039;-77
2023/08/10 13:05:09;;;;;;;6.00;1.85;;;;;;;;;;4922053;29;20040;-78
2023/08/10 13:07:36;;;;;;;7.43;1.52;;;;;;;;;;4904936;29;20410;-77
2023/08/10 13:10:02;;;;;;;3.97;1.75;;;;;;;;;;4931658;29;20500;-76
2023/08/10 13:12:28;;;;;;;4.38;1.80;;;;;;;;;;4918032;29;20517;-77
2023/08/10 13:14:54;;;;;;;6.15;2.10;;;;;;;;;;4917872;29;20028;-77
2023/08/10 13:17:20;;;;;;;5.07;1.55;;;;;;;;;;4917036;29;20032;-78
2023/08/10 13:19:46;;;;;;;5.50;1.58;;;;;;;;;;4900402;29;20047;-75
2023/08/10 13:22:11;;;;;;;5.30;1.45;;;;;;;;;;4917291;29;20503;-75
2023/08/10 13:24:37;;;;;;;3.28;1.50;;;;;;;;;;4917048;29;20048;-78
2023/08/10 13:27:03;;;;;;;2.88;1.30;;;;;;;;;;4917008;29;20059;-78
2023/08/10 13:29:29;;;;;;;2.75;1.40;;;;;;;;;;4885663;29;20024;-74
2023/08/10 13:31:56;;;;;;;3.22;1.27;;;;;;;;;;4899602;29;20028;-77
2023/08/10 13:34:21;;;;;;;7.07;1.50;;;;;;;;;;4916495;29;20028;-77
2023/08/10 13:36:47;;;;;;;6.55;1.60;;;;;;;;;;4916276;29;20028;-77
2023/08/10 13:39:13;;;;;;;2.85;1.30;;;;;;;;;;4916313;29;20488;-75
2023/08/10 13:41:38;;;;;;;5.55;1.35;;;;;;;;;;4899038;29;20078;-76
2023/08/10 13:44:04;;;;;;;9.68;1.60;;;;;;;;;;4900254;29;20365;-78
2023/08/10 13:46:30;;;;;;;6.32;1.67;;;;;;;;;;4900004;29;20132;-78
2023/08/10 13:48:55;;;;;;;5.15;1.33;;;;;;;;;;4883159;29;20040;-78
2023/08/10 13:51:21;;;;;;;4.50;1.52;;;;;;;;;;4901176;29;20107;-78
2023/08/10 13:53:47;;;;;;;6.20;1.65;;;;;;;;;;4916525;29;20028;-77
2023/08/10 13:56:12;;;;;;;3.95;1.83;;;;;;;;;;4899638;29;20400;-77
2023/08/10 13:58:38;;;;;;;4.43;1.20;;;;;;;;;;4915548;29;20040;-77
2023/08/10 14:01:06;;;;;;;4.30;1.35;;;;;;;;;;4915119;29;20088;-75
2023/08/10 14:03:35;;;;;;;10.35;1.73;;;;;;;;;;4899583;29;20032;-77
2023/08/10 14:06:02;;;;;;;5.30;1.50;;;;;;;;;;4915968;29;20535;-76
2023/08/10 14:08:27;;;;;;;5.57;1.77;;;;;;;;;;4898802;29;20032;-77
2023/08/10 14:10:53;;;;;;;4.72;1.73;;;;;;;;;;4915788;29;20024;-78
2023/08/10 14:13:18;;;;;;;5.07;1.52;;;;;;;;;;4915761;29;20499;-77
2023/08/10 14:15:44;;;;;;;4.13;1.63;;;;;;;;;;4883281;29;20036;-77
2023/08/10 14:18:09;;;;;;;5.90;1.67;;;;;;;;;;4898695;29;20039;-76
2023/08/10 14:20:38;;;;;;;5.78;1.60;;;;;;;;;;4915596;29;20111;-76
2023/08/10 14:23:03;;;;;;;13.40;1.58;;;;;;;;;;4916469;29;20032;-78
2023/08/10 14:25:29;;;;;;;4.95;1.70;;;;;;;;;;4915573;29;20028;-77
2023/08/10 14:27:54;;;;;;;4.90;1.40;;;;;;;;;;4915598;29;20617;-76
2023/08/10 14:30:20;;;;;;;4.85;1.73;;;;;;;;;;4915867;29;20024;-78
2023/08/10 14:32:46;;;;;;;6.18;1.60;;;;;;;;;;4915140;29;20171;-77
2023/08/10 14:35:11;;;;;;;3.75;1.55;;;;;;;;;;4898737;29;20032;-77
2023/08/10 14:37:37;;;;;;;3.78;1.65;;;;;;;;;;4898485;29;20028;-77
2023/08/10 14:40:03;;;;;;;4.10;1.50;;;;;;;;;;4914141;29;20505;-78
2023/08/10 14:42:29;;;;;;;6.53;1.60;;;;;;;;;;4929321;29;20036;-76
2023/08/10 14:44:55;;;;;;;2.75;1.33;;;;;;;;;;4915424;29;20043;-76